Time;durP1;ratioP1;P1;durP2;ratioP2;P2;SDS_P1;SDS_P2;PMS_P1;PMS_P2;Temp;Humidity;BMP_temperature;BMP_pressure;BME280_temperature;BME280_humidity;BME280_pressure;Samples;Min_cycle;Max_cycle;Signal;HPM_P1;HPM_P2
2024/01/26 00:01:45;;;;;;;6.08;3.00;;;;;;;1.24;90.33;100583.75;1791384;80;25407;-44
2024/01/26 00:04:11;;;;;;;4.00;2.60;;;;;;;1.21;90.24;100583.40;1791281;80;25643;-45
2024/01/26 00:06:38;;;;;;;3.65;2.40;;;;;;;1.21;89.98;100597.55;1791435;80;25598;-45
2024/01/26 00:09:11;;;;;;;2.58;2.20;;;;;;;1.21;90.15;100610.05;1791287;80;27372;-46
2024/01/26 00:11:39;;;;;;;3.70;2.40;;;;;;;1.18;90.06;100604.69;1791222;80;25429;-45
2024/01/26 00:14:07;;;;;;;2.33;2.10;;;;;;;1.20;90.14;100608.45;1791288;80;25383;-45
2024/01/26 00:16:36;;;;;;;4.67;2.75;;;;;;;1.18;90.02;100610.02;1791270;80;25903;-45
2024/01/26 00:19:05;;;;;;;3.80;2.27;;;;;;;1.19;90.12;100614.81;1791328;79;25625;-46
2024/01/26 00:21:32;;;;;;;3.58;2.75;;;;;;;1.16;90.17;100611.28;1791348;79;27366;-45
2024/01/26 00:23:59;;;;;;;2.95;2.22;;;;;;;1.17;90.07;100611.59;1791211;80;25672;-45
2024/01/26 00:26:26;;;;;;;3.70;2.87;;;;;;;1.17;90.02;100620.37;1791310;80;25541;-45
2024/01/26 00:28:52;;;;;;;3.30;2.25;;;;;;;1.16;89.95;100624.61;1791252;80;25572;-44
2024/01/26 00:31:19;;;;;;;3.00;2.70;;;;;;;1.15;89.86;100629.14;1791321;80;25648;-45
2024/01/26 00:33:46;;;;;;;3.08;2.40;;;;;;;1.16;90.02;100620.11;1791251;80;27370;-45
2024/01/26 00:36:14;;;;;;;3.75;2.52;;;;;;;1.15;89.83;100627.00;1791201;80;25364;-45
2024/01/26 00:38:41;;;;;;;4.30;3.10;;;;;;;1.14;89.87;100630.17;1791230;80;25559;-45
2024/01/26 00:41:08;;;;;;;4.00;3.10;;;;;;;1.16;90.11;100639.27;1791249;80;25543;-45
2024/01/26 00:43:34;;;;;;;4.03;3.05;;;;;;;1.14;89.96;100632.84;1791316;80;25429;-45
2024/01/26 00:46:00;;;;;;;5.17;3.08;;;;;;;1.14;90.12;100638.70;1791278;80;27262;-45
2024/01/26 00:48:27;;;;;;;3.10;2.65;;;;;;;1.14;90.15;100644.03;1791206;80;25559;-45
2024/01/26 00:50:54;;;;;;;3.02;2.72;;;;;;;1.16;90.17;100648.59;1791236;80;25585;-43
2024/01/26 00:53:22;;;;;;;2.83;2.47;;;;;;;1.14;90.10;100648.83;1791265;79;25388;-45
2024/01/26 00:55:50;;;;;;;3.02;2.50;;;;;;;1.13;89.93;100655.22;1791292;80;25571;-44
2024/01/26 00:58:16;;;;;;;2.75;2.50;;;;;;;1.14;89.68;100660.02;1791301;80;27313;-44
2024/01/26 01:00:42;;;;;;;4.53;2.67;;;;;;;1.10;89.44;100653.02;1791136;80;25822;-44
2024/01/26 01:03:09;;;;;;;2.47;2.15;;;;;;;1.11;89.54;100670.64;1791264;80;25593;-47
2024/01/26 01:05:36;;;;;;;3.08;2.12;;;;;;;1.10;89.52;100667.14;1791233;80;25393;-46
2024/01/26 01:08:04;;;;;;;3.72;2.70;;;;;;;1.09;89.47;100671.37;1791246;80;25552;-44
2024/01/26 01:10:31;;;;;;;2.83;2.33;;;;;;;1.09;89.37;100670.87;1791491;80;28014;-46
2024/01/26 01:12:57;;;;;;;2.47;1.92;;;;;;;1.09;89.60;100670.05;1791130;80;25421;-45
2024/01/26 01:15:23;;;;;;;3.02;2.05;;;;;;;1.10;89.77;100674.34;1791235;79;25401;-45
2024/01/26 01:17:50;;;;;;;2.47;2.20;;;;;;;1.11;89.76;100677.30;1791245;80;25380;-46
2024/01/26 01:20:16;;;;;;;4.35;2.20;;;;;;;1.11;89.84;100678.10;1791299;80;25709;-47
2024/01/26 01:22:44;;;;;;;5.15;2.52;;;;;;;1.13;89.94;100679.20;1791111;80;27364;-45
2024/01/26 01:25:12;;;;;;;3.98;2.40;;;;;;;1.14;89.86;100690.66;1791139;80;25582;-45
2024/01/26 01:27:39;;;;;;;3.30;3.00;;;;;;;1.14;89.70;100677.34;1791237;80;25545;-47
2024/01/26 01:30:09;;;;;;;3.08;2.70;;;;;;;1.13;89.81;100683.73;1791175;80;25586;-45
2024/01/26 01:32:35;;;;;;;3.72;2.80;;;;;;;1.12;89.83;100680.23;1791319;79;25452;-44
2024/01/26 01:35:03;;;;;;;4.08;3.05;;;;;;;1.11;89.82;100691.95;1791289;80;27311;-45
2024/01/26 01:37:29;;;;;;;2.85;2.10;;;;;;;1.11;89.78;100694.09;1791165;80;25482;-45
2024/01/26 01:39:56;;;;;;;2.85;2.50;;;;;;;1.11;89.79;100694.09;1791223;79;25442;-45
2024/01/26 01:42:22;;;;;;;2.00;1.90;;;;;;;1.11;89.67;100698.62;1791222;79;25644;-44
2024/01/26 01:44:48;;;;;;;2.60;2.40;;;;;;;1.12;89.59;100698.88;1791250;80;25173;-44
2024/01/26 01:47:15;;;;;;;2.35;1.98;;;;;;;1.10;89.29;100703.11;1791246;80;27986;-44
2024/01/26 01:49:44;;;;;;;2.67;2.20;;;;;;;1.08;89.22;100709.73;1791151;79;25700;-45
2024/01/26 01:52:15;;;;;;;3.70;2.50;;;;;;;1.07;89.29;100708.94;1791219;80;25541;-44
2024/01/26 01:54:43;;;;;;;2.75;2.20;;;;;;;1.07;89.33;100713.44;1791228;80;25592;-45
2024/01/26 01:57:14;;;;;;;2.22;2.00;;;;;;;1.06;89.29;100707.84;1791280;80;25456;-45
2024/01/26 01:59:44;;;;;;;1.92;1.80;;;;;;;1.06;89.43;100717.16;1771432;80;27312;-47
2024/01/26 02:02:10;;;;;;;2.30;2.10;;;;;;;1.06;89.36;100719.83;1791134;80;25703;-45
2024/01/26 02:04:36;;;;;;;3.52;2.22;;;;;;;1.04;89.46;100713.40;1791244;80;25614;-45
2024/01/26 02:07:05;;;;;;;3.22;2.10;;;;;;;1.05;89.50;100726.19;1791194;80;25558;-47
2024/01/26 02:09:32;;;;;;;4.10;2.77;;;;;;;1.04;89.46;100719.23;1791390;80;25564;-46
2024/01/26 02:12:03;;;;;;;1.62;1.50;;;;;;;1.04;89.51;100724.55;1791191;79;27305;-45
2024/01/26 02:14:26;;;;;;;2.67;2.08;;;;;;;1.04;89.56;100725.89;1790032;79;25836;-46
2024/01/26 02:16:57;;;;;;;2.65;2.45;;;;;;;1.04;89.64;100724.05;1791327;80;25413;-46
2024/01/26 02:19:25;;;;;;;1.90;1.70;;;;;;;1.05;89.75;100724.33;1790423;79;25624;-46
2024/01/26 02:21:53;;;;;;;4.00;1.92;;;;;;;1.04;89.40;100721.39;1791395;80;25619;-47
2024/01/26 02:24:19;;;;;;;2.60;1.90;;;;;;;1.03;89.26;100723.75;1761466;78;27290;-45
2024/01/26 02:26:45;;;;;;;1.80;1.37;;;;;;;1.01;89.19;100722.39;1761187;81;25676;-44
2024/01/26 02:29:12;;;;;;;1.40;1.30;;;;;;;1.01;89.19;100726.38;1761311;81;25725;-45
2024/01/26 02:31:42;;;;;;;1.32;1.22;;;;;;;1.00;89.14;100735.41;1761254;81;25569;-44
2024/01/26 02:34:11;;;;;;;2.00;1.62;;;;;;;1.00;88.97;100729.55;1761311;81;25630;-45
2024/01/26 02:36:38;;;;;;;1.95;1.35;;;;;;;0.98;88.81;100728.98;1761227;81;27314;-46
2024/01/26 02:39:06;;;;;;;1.35;1.25;;;;;;;0.98;88.75;100740.97;1761302;81;25547;-44
2024/01/26 02:41:35;;;;;;;1.40;1.30;;;;;;;0.95;88.24;100741.42;1761424;81;25575;-45
2024/01/26 02:44:03;;;;;;;1.42;1.22;;;;;;;0.93;88.29;100742.98;1761477;81;25836;-45
2024/01/26 02:46:29;;;;;;;1.82;1.10;;;;;;;0.91;88.14;100741.62;1761458;81;25475;-45
2024/01/26 02:48:56;;;;;;;2.17;1.85;;;;;;;0.89;88.05;100742.37;1761425;81;27308;-45
2024/01/26 02:51:22;;;;;;;2.17;1.40;;;;;;;0.88;87.90;100750.88;1761338;81;25469;-46
2024/01/26 02:53:48;;;;;;;1.67;1.27;;;;;;;0.87;88.08;100757.26;1761430;81;25625;-45
2024/01/26 02:56:14;;;;;;;1.60;1.40;;;;;;;0.88;88.04;100754.06;1761339;81;25454;-44
2024/01/26 02:58:40;;;;;;;0.90;0.90;;;;;;;0.86;88.05;100759.63;1761475;81;25370;-46
2024/01/26 03:01:07;;;;;;;1.20;1.10;;;;;;;0.86;88.13;100760.15;1761395;81;28001;-44
2024/01/26 03:03:33;;;;;;;1.50;1.40;;;;;;;0.86;88.02;100767.61;1761298;81;25618;-45
2024/01/26 03:05:59;;;;;;;1.32;1.22;;;;;;;0.86;88.20;100755.63;1761414;81;25386;-46
2024/01/26 03:08:26;;;;;;;1.50;1.25;;;;;;;0.87;88.23;100764.41;1761391;81;25512;-46
2024/01/26 03:10:52;;;;;;;1.90;1.40;;;;;;;0.85;88.25;100762.02;1761433;81;25816;-45
2024/01/26 03:13:19;;;;;;;1.90;1.32;;;;;;;0.87;88.20;100769.75;1761416;81;27292;-45
2024/01/26 03:15:49;;;;;;;1.98;1.20;;;;;;;0.86;88.06;100765.48;1761303;81;25566;-45
2024/01/26 03:18:17;;;;;;;1.75;1.40;;;;;;;0.86;88.24;100769.47;1761431;81;25579;-45
2024/01/26 03:20:44;;;;;;;1.37;1.27;;;;;;;0.85;88.27;100771.34;1761328;81;25933;-45
2024/01/26 03:23:11;;;;;;;2.25;1.57;;;;;;;0.85;88.20;100777.99;1761346;79;25574;-45
2024/01/26 03:25:38;;;;;;;2.47;1.30;;;;;;;0.85;88.36;100781.98;1761403;81;27306;-45
2024/01/26 03:28:06;;;;;;;2.17;1.57;;;;;;;0.85;88.39;100785.98;1761419;81;25546;-45
2024/01/26 03:30:34;;;;;;;1.80;1.30;;;;;;;0.86;88.46;100781.45;1761398;81;25438;-46
2024/01/26 03:33:01;;;;;;;1.80;1.42;;;;;;;0.87;88.38;100783.89;1761350;81;25868;-46
2024/01/26 03:35:27;;;;;;;1.90;1.80;;;;;;;0.86;88.36;100792.11;1761406;81;25461;-46
2024/01/26 03:37:54;;;;;;;1.37;1.27;;;;;;;0.85;88.13;100790.48;1761477;81;28021;-45
2024/01/26 03:40:21;;;;;;;1.92;1.50;;;;;;;0.85;88.29;100787.81;1761247;81;25670;-48
2024/01/26 03:42:48;;;;;;;3.00;1.57;;;;;;;0.85;88.21;100791.81;1761389;81;25549;-48
2024/01/26 03:45:14;;;;;;;1.47;1.12;;;;;;;0.85;88.03;100796.64;1761361;81;25540;-48
2024/01/26 03:47:40;;;;;;;1.70;1.60;;;;;;;0.84;88.08;100796.34;1761400;81;25397;-48
2024/01/26 03:50:09;;;;;;;3.05;1.32;;;;;;;0.84;88.13;100804.86;1761382;81;27489;-48
2024/01/26 03:52:35;;;;;;;1.77;1.52;;;;;;;0.85;88.19;100807.29;1761437;81;25433;-44
2024/01/26 03:55:06;;;;;;;1.50;1.40;;;;;;;0.86;88.11;100805.43;1761426;81;25590;-46
2024/01/26 03:57:31;;;;;;;1.45;1.15;;;;;;;0.86;88.00;100807.56;1761093;81;32421;-45
2024/01/26 03:59:57;;;;;;;1.40;1.30;;;;;;;0.86;88.03;100815.55;1761384;81;25600;-45
2024/01/26 04:02:23;;;;;;;1.35;1.20;;;;;;;0.86;88.09;100818.75;1761440;81;27911;-45
2024/01/26 04:04:49;;;;;;;1.05;1.05;;;;;;;0.86;87.96;100810.76;1761352;81;25575;-44
2024/01/26 04:07:15;;;;;;;3.17;1.52;;;;;;;0.88;88.12;100810.00;1761439;81;25586;-44
2024/01/26 04:09:42;;;;;;;1.52;1.42;;;;;;;0.88;88.05;100819.32;1761415;81;25461;-45
2024/01/26 04:12:08;;;;;;;1.45;1.32;;;;;;;0.86;87.46;100821.41;1761365;81;25409;-47
2024/01/26 04:14:34;;;;;;;3.05;1.57;;;;;;;0.85;87.64;100819.28;1761371;81;27382;-46
2024/01/26 04:17:00;;;;;;;2.10;1.30;;;;;;;0.85;87.73;100822.44;1761232;81;27286;-47
2024/01/26 04:19:27;;;;;;;1.40;1.30;;;;;;;0.85;87.62;100827.77;1761332;81;25546;-45
2024/01/26 04:21:53;;;;;;;1.98;1.50;;;;;;;0.83;87.52;100820.53;1761321;81;25651;-44
2024/01/26 04:24:19;;;;;;;1.95;1.67;;;;;;;0.82;87.52;100825.06;1782595;79;25431;-45
2024/01/26 04:26:46;;;;;;;1.50;1.40;;;;;;;0.84;87.61;100828.83;1791297;79;27428;-45
2024/01/26 04:29:12;;;;;;;1.50;1.10;;;;;;;0.82;87.47;100829.05;1791173;80;25400;-45
2024/01/26 04:31:42;;;;;;;1.17;1.07;;;;;;;0.81;87.20;100827.42;1791272;80;25448;-44
2024/01/26 04:34:10;;;;;;;1.72;1.30;;;;;;;0.82;87.42;100830.89;1791242;80;25560;-46
2024/01/26 04:36:36;;;;;;;1.75;1.35;;;;;;;0.83;87.35;100831.19;1791299;80;25552;-45
2024/01/26 04:39:03;;;;;;;1.75;1.30;;;;;;;0.82;87.39;100838.38;1791367;80;27926;-45
2024/01/26 04:41:29;;;;;;;1.50;1.40;;;;;;;0.83;87.28;100848.50;1791143;79;25718;-46
2024/01/26 04:43:56;;;;;;;1.80;1.30;;;;;;;0.82;87.22;100837.55;1791280;80;25602;-45
2024/01/26 04:46:22;;;;;;;1.67;1.50;;;;;;;0.81;87.41;100840.73;1791235;80;25614;-48
2024/01/26 04:48:50;;;;;;;1.95;1.52;;;;;;;0.81;87.54;100842.06;1791263;80;25544;-45
2024/01/26 04:51:16;;;;;;;2.75;1.72;;;;;;;0.81;87.52;100836.74;1791252;79;27310;-44
2024/01/26 04:53:43;;;;;;;1.90;1.57;;;;;;;0.82;87.46;100841.04;1791194;80;25543;-44
2024/01/26 04:56:12;;;;;;;4.70;1.80;;;;;;;0.81;87.19;100847.92;1791261;80;25375;-44
2024/01/26 04:58:39;;;;;;;;;;;;;;;0.78;87.25;100846.52;1793870;80;25370;-44
2024/01/26 05:01:05;;;;;;;2.10;1.55;;;;;;;0.81;87.12;100853.25;1791261;80;25629;-44
2024/01/26 05:03:31;;;;;;;1.40;1.30;;;;;;;0.80;87.15;100854.28;1791286;79;27949;-43
2024/01/26 05:05:57;;;;;;;1.30;1.20;;;;;;;0.80;87.15;100856.44;1791187;79;25583;-44
2024/01/26 05:08:24;;;;;;;1.30;1.20;;;;;;;0.80;86.87;100863.60;1791270;80;25590;-44
2024/01/26 05:10:51;;;;;;;1.15;1.00;;;;;;;0.78;86.37;100865.69;1791228;80;25384;-44
2024/01/26 05:13:17;;;;;;;1.07;1.00;;;;;;;0.77;86.46;100866.22;1791307;80;25553;-44
2024/01/26 05:15:44;;;;;;;1.27;0.98;;;;;;;0.77;86.44;100870.22;1791221;80;27309;-44
2024/01/26 05:18:10;;;;;;;2.10;1.30;;;;;;;0.78;86.37;100867.02;1791137;80;25373;-44
2024/01/26 05:20:36;;;;;;;0.90;0.90;;;;;;;0.78;86.11;100857.17;1791228;80;25545;-44
2024/01/26 05:23:04;;;;;;;0.95;0.80;;;;;;;0.78;86.22;100871.02;1791139;80;26057;-45
2024/01/26 05:25:30;;;;;;;1.47;1.00;;;;;;;0.79;86.13;100864.66;1791319;80;25468;-45
2024/01/26 05:27:56;;;;;;;1.05;0.93;;;;;;;0.79;85.84;100870.79;1791265;79;27302;-45
2024/01/26 05:30:22;;;;;;;1.02;0.98;;;;;;;0.79;85.96;100873.98;1791176;80;25607;-45
2024/01/26 05:32:49;;;;;;;1.70;1.10;;;;;;;0.79;85.86;100876.64;1791204;79;25466;-45
2024/01/26 05:35:15;;;;;;;2.62;1.35;;;;;;;0.79;85.89;100880.11;1791218;80;26363;-44
2024/01/26 05:37:41;;;;;;;1.50;1.40;;;;;;;0.80;85.75;100884.41;1791288;80;25538;-45
2024/01/26 05:40:10;;;;;;;1.42;1.32;;;;;;;0.81;85.99;100886.55;1791231;79;27317;-45
2024/01/26 05:42:36;;;;;;;2.30;1.60;;;;;;;0.80;86.09;100879.58;1791427;80;25393;-45
2024/01/26 05:45:05;;;;;;;1.62;1.52;;;;;;;0.83;86.21;100884.45;1791242;79;25608;-44
2024/01/26 05:47:32;;;;;;;2.12;1.60;;;;;;;0.84;86.24;100882.90;1791316;80;25389;-46
2024/01/26 05:49:58;;;;;;;1.70;1.50;;;;;;;0.85;86.29;100891.69;1791239;80;25429;-45
2024/01/26 05:52:24;;;;;;;2.90;1.60;;;;;;;0.86;86.36;100896.79;1791234;80;27317;-46
2024/01/26 05:54:51;;;;;;;1.55;1.45;;;;;;;0.88;86.46;100897.37;1791184;80;25554;-45
2024/01/26 05:57:17;;;;;;;3.15;1.70;;;;;;;0.89;86.54;100897.67;1791350;80;25785;-44
2024/01/26 05:59:43;;;;;;;2.85;2.02;;;;;;;0.90;86.58;100899.30;1791260;80;25560;-46
2024/01/26 06:02:10;;;;;;;2.58;2.22;;;;;;;0.89;86.70;100892.34;1791228;80;25388;-45
2024/01/26 06:04:36;;;;;;;3.72;2.83;;;;;;;0.91;86.76;100894.78;1791211;80;27304;-45
2024/01/26 06:07:03;;;;;;;4.65;2.85;;;;;;;0.93;86.80;100894.02;1791162;79;25609;-46
2024/01/26 06:09:30;;;;;;;3.92;2.90;;;;;;;0.92;86.91;100893.75;1791236;80;25395;-46
2024/01/26 06:11:56;;;;;;;3.83;2.80;;;;;;;0.92;86.89;100894.55;1791300;79;25457;-45
2024/01/26 06:14:22;;;;;;;3.90;2.95;;;;;;;0.91;86.87;100892.92;1791429;80;25397;-45
2024/01/26 06:16:53;;;;;;;3.83;2.58;;;;;;;0.90;86.92;100890.48;1790980;80;27375;-45
2024/01/26 06:19:16;;;;;;;2.85;2.17;;;;;;;0.86;86.90;100891.47;1789401;79;25810;-46
2024/01/26 06:21:42;;;;;;;3.50;2.37;;;;;;;0.87;86.84;100891.77;1790600;79;25599;-45
2024/01/26 06:24:09;;;;;;;3.65;2.20;;;;;;;0.84;86.70;100892.75;1792884;79;25830;-45
2024/01/26 06:26:35;;;;;;;3.25;2.20;;;;;;;0.83;86.57;100899.11;1796500;79;25662;-45
2024/01/26 06:29:03;;;;;;;2.08;1.87;;;;;;;0.81;86.37;100907.32;1796497;79;27882;-45
2024/01/26 06:31:29;;;;;;;3.10;1.77;;;;;;;0.79;86.50;100905.41;1796698;79;25681;-44
2024/01/26 06:33:56;;;;;;;3.08;1.70;;;;;;;0.79;86.43;100907.27;1797336;79;25427;-48
2024/01/26 06:36:22;;;;;;;3.37;1.90;;;;;;;0.78;86.24;100907.77;1797240;79;25901;-45
2024/01/26 06:38:48;;;;;;;2.42;1.82;;;;;;;0.78;86.39;100909.10;1797232;79;25363;-48
2024/01/26 06:41:14;;;;;;;1.98;1.67;;;;;;;0.79;86.37;100902.75;1797233;79;27319;-44
2024/01/26 06:43:41;;;;;;;2.15;1.72;;;;;;;0.79;86.00;100904.61;1797186;79;25425;-44
2024/01/26 06:46:07;;;;;;;2.15;1.70;;;;;;;0.76;85.87;100905.86;1797209;79;25635;-45
2024/01/26 06:48:33;;;;;;;3.27;2.17;;;;;;;0.76;85.94;100908.53;1797249;79;25614;-45
2024/01/26 06:51:00;;;;;;;3.35;1.75;;;;;;;0.75;85.88;100912.25;1797302;79;25402;-45
2024/01/26 06:53:26;;;;;;;3.10;1.90;;;;;;;0.76;85.81;100911.72;1797251;79;26920;-45
2024/01/26 06:55:52;;;;;;;3.10;1.95;;;;;;;0.76;86.04;100918.37;1797181;79;25536;-45
2024/01/26 06:58:18;;;;;;;3.27;2.15;;;;;;;0.76;86.14;100919.70;1797241;79;25570;-45
2024/01/26 07:00:46;;;;;;;4.45;2.02;;;;;;;0.77;86.31;100919.48;1797189;79;25568;-45
2024/01/26 07:03:13;;;;;;;2.60;2.05;;;;;;;0.79;86.45;100917.92;1797269;79;25566;-48
2024/01/26 07:05:40;;;;;;;2.17;1.80;;;;;;;0.81;86.54;100918.50;1797198;79;27304;-45
2024/01/26 07:08:07;;;;;;;5.03;2.30;;;;;;;0.83;86.52;100923.08;1797152;79;25711;-45
2024/01/26 07:10:33;;;;;;;2.42;1.98;;;;;;;0.83;86.46;100915.09;1797336;79;25382;-45
2024/01/26 07:12:59;;;;;;;3.83;2.08;;;;;;;0.84;86.20;100916.19;1797196;79;25469;-45
2024/01/26 07:15:25;;;;;;;2.80;1.95;;;;;;;0.85;85.89;100913.00;1797251;79;25625;-44
2024/01/26 07:17:52;;;;;;;3.50;1.87;;;;;;;0.85;86.05;100920.48;1797174;79;29667;-44
2024/01/26 07:20:20;;;;;;;2.75;2.35;;;;;;;0.86;86.02;100917.30;1797118;79;25424;-46
2024/01/26 07:22:46;;;;;;;3.30;2.33;;;;;;;0.87;86.08;100915.73;1797115;79;25393;-45
2024/01/26 07:25:18;;;;;;;2.87;2.10;;;;;;;0.89;86.03;100919.51;1772141;78;25602;-45
2024/01/26 07:27:40;;;;;;;3.15;1.90;;;;;;;0.90;86.16;100921.11;1760346;81;25426;-45
2024/01/26 07:30:08;;;;;;;3.17;1.80;;;;;;;0.93;86.21;100918.00;1761378;81;27375;-45
2024/01/26 07:32:35;;;;;;;3.77;2.12;;;;;;;0.96;86.01;100928.20;1761604;81;25779;-44
2024/01/26 07:35:02;;;;;;;5.30;2.00;;;;;;;0.97;85.79;100926.34;1761414;81;25351;-44
2024/01/26 07:37:28;;;;;;;2.90;1.98;;;;;;;0.98;85.53;100930.11;1761384;81;25483;-45
2024/01/26 07:39:54;;;;;;;2.17;1.77;;;;;;;0.97;85.33;100936.50;1761408;81;25421;-44
2024/01/26 07:42:20;;;;;;;3.37;1.70;;;;;;;0.99;85.12;100938.41;1761399;81;27696;-45
2024/01/26 07:44:46;;;;;;;2.05;1.70;;;;;;;1.00;85.28;100937.88;1761338;81;25629;-45
2024/01/26 07:47:12;;;;;;;2.98;1.92;;;;;;;1.01;85.25;100944.84;1761386;81;25562;-48
2024/01/26 07:49:39;;;;;;;4.42;1.90;;;;;;;1.03;85.05;100942.75;1761371;81;25414;-44
2024/01/26 07:52:05;;;;;;;2.05;1.80;;;;;;;1.05;84.79;100953.98;1761444;81;25392;-44
2024/01/26 07:54:32;;;;;;;2.37;1.80;;;;;;;1.05;84.76;100960.64;1761401;81;28125;-43
2024/01/26 07:56:58;;;;;;;4.35;1.82;;;;;;;1.06;84.37;100975.08;1761297;81;25555;-45
2024/01/26 07:59:24;;;;;;;3.52;1.70;;;;;;;1.08;84.47;100975.66;1761344;81;25485;-47
2024/01/26 08:01:50;;;;;;;3.40;1.80;;;;;;;1.10;84.59;100982.09;1761280;81;25602;-45
2024/01/26 08:04:16;;;;;;;2.92;1.45;;;;;;;1.15;84.82;100978.74;1761355;81;25583;-48
2024/01/26 08:06:43;;;;;;;3.65;1.62;;;;;;;1.18;84.46;100979.09;1761376;81;27329;-45
2024/01/26 08:09:10;;;;;;;3.05;1.37;;;;;;;1.22;84.54;100987.44;1761275;81;25585;-48
2024/01/26 08:11:37;;;;;;;2.67;1.82;;;;;;;1.24;84.34;100986.68;1761378;81;25598;-46
2024/01/26 08:14:04;;;;;;;2.27;1.65;;;;;;;1.24;84.15;100986.19;1761311;81;25564;-45
2024/01/26 08:16:31;;;;;;;2.10;1.77;;;;;;;1.26;84.21;100985.43;1761425;81;25398;-44
2024/01/26 08:18:57;;;;;;;2.87;2.00;;;;;;;1.27;84.14;100979.03;1761365;81;27259;-44
2024/01/26 08:21:24;;;;;;;2.40;2.00;;;;;;;1.29;84.10;100983.64;1761248;81;25615;-46
2024/01/26 08:23:50;;;;;;;6.22;2.05;;;;;;;1.30;84.24;100977.25;1761322;81;25619;-44
2024/01/26 08:26:18;;;;;;;5.53;3.30;;;;;;;1.33;84.43;100973.83;1791115;79;26132;-45
2024/01/26 08:28:45;;;;;;;4.83;2.67;;;;;;;1.36;84.40;100977.37;1791287;80;25509;-45
2024/01/26 08:31:12;;;;;;;4.15;2.42;;;;;;;1.39;84.62;100975.58;1791291;79;27413;-44
2024/01/26 08:33:38;;;;;;;3.55;2.62;;;;;;;1.44;84.61;100984.50;1791276;79;25379;-44
2024/01/26 08:36:06;;;;;;;3.92;2.20;;;;;;;1.47;84.39;100972.58;1791327;80;25571;-44
2024/01/26 08:38:33;;;;;;;4.33;2.47;;;;;;;1.52;84.44;100971.89;1791280;80;25565;-45
2024/01/26 08:40:59;;;;;;;3.58;2.67;;;;;;;1.56;84.58;100964.51;1791274;80;25375;-45
2024/01/26 08:43:25;;;;;;;2.95;2.10;;;;;;;1.59;84.43;100970.72;1791328;79;27283;-47
2024/01/26 08:45:51;;;;;;;3.70;2.12;;;;;;;1.61;84.23;100966.48;1791208;80;25631;-45
2024/01/26 08:48:17;;;;;;;4.30;2.90;;;;;;;1.64;83.91;100964.16;1791360;79;25533;-44
2024/01/26 08:50:44;;;;;;;5.00;2.50;;;;;;;1.66;83.48;100972.73;1791265;79;25609;-46
2024/01/26 08:53:10;;;;;;;4.33;2.85;;;;;;;1.66;83.34;100973.27;1791320;80;25442;-44
2024/01/26 08:55:39;;;;;;;2.95;2.52;;;;;;;1.68;83.45;100969.84;1791272;79;27314;-43
2024/01/26 08:58:06;;;;;;;4.03;2.58;;;;;;;1.71;83.65;100974.72;1791257;80;26003;-44
2024/01/26 09:00:35;;;;;;;3.70;2.80;;;;;;;1.75;83.48;100975.05;1791390;80;25562;-44
2024/01/26 09:03:03;;;;;;;3.00;2.50;;;;;;;1.76;83.17;100977.49;1791300;80;25378;-43
2024/01/26 09:05:29;;;;;;;3.02;2.30;;;;;;;1.78;82.99;100970.59;1791310;80;25624;-44
2024/01/26 09:07:57;;;;;;;2.45;2.10;;;;;;;1.78;82.33;100973.27;1791328;80;27335;-44
2024/01/26 09:10:24;;;;;;;3.22;2.00;;;;;;;1.78;82.51;100968.73;1791204;80;25536;-44
2024/01/26 09:12:51;;;;;;;3.87;2.55;;;;;;;1.82;82.41;100975.23;1791270;80;25363;-43
2024/01/26 09:15:17;;;;;;;2.50;2.20;;;;;;;1.88;82.74;100968.14;1791189;80;26141;-46
2024/01/26 09:17:43;;;;;;;2.95;2.33;;;;;;;1.96;82.84;100961.12;1791297;80;25406;-46
2024/01/26 09:20:12;;;;;;;2.60;2.40;;;;;;;2.01;82.46;100949.72;1791281;80;27329;-44
2024/01/26 09:22:38;;;;;;;2.60;2.33;;;;;;;2.10;81.97;100964.34;1791384;80;25373;-46
2024/01/26 09:25:06;;;;;;;2.40;2.20;;;;;;;2.19;82.19;100964.24;1793436;79;25389;-45
2024/01/26 09:27:33;;;;;;;2.87;2.42;;;;;;;2.26;81.75;100971.31;1797337;79;25591;-45
2024/01/26 09:29:59;;;;;;;4.03;3.12;;;;;;;2.34;81.67;100954.93;1797192;79;25433;-44
2024/01/26 09:32:25;;;;;;;4.65;3.33;;;;;;;2.39;81.26;100957.16;1797157;79;27307;-45
2024/01/26 09:34:52;;;;;;;5.00;3.40;;;;;;;2.46;81.07;100961.03;1797052;79;25444;-45
2024/01/26 09:37:20;;;;;;;4.90;3.40;;;;;;;2.50;80.86;100956.82;1797143;79;25618;-45
2024/01/26 09:39:47;;;;;;;4.47;3.35;;;;;;;2.55;80.60;100955.58;1797124;79;25614;-45
2024/01/26 09:42:14;;;;;;;3.65;2.67;;;;;;;2.59;80.25;100959.41;1797180;79;25436;-45
2024/01/26 09:44:40;;;;;;;3.75;3.08;;;;;;;2.59;79.94;100950.59;1797132;79;27318;-44
2024/01/26 09:47:08;;;;;;;4.75;3.33;;;;;;;2.61;79.98;100949.30;1797396;79;25548;-45
2024/01/26 09:49:37;;;;;;;4.45;3.25;;;;;;;2.58;78.83;100935.08;1782126;79;25485;-45
2024/01/26 09:52:08;;;;;;;3.77;2.47;;;;;;;2.54;78.32;100940.62;1797474;79;25555;-45
2024/01/26 09:54:36;;;;;;;3.50;3.20;;;;;;;2.47;78.06;100922.61;1797438;79;25558;-45
2024/01/26 09:57:04;;;;;;;4.67;3.45;;;;;;;2.47;78.39;100935.95;1797363;79;27315;-46
2024/01/26 09:59:31;;;;;;;5.15;4.08;;;;;;;2.47;78.46;100939.97;1797485;79;25621;-45
2024/01/26 10:01:57;;;;;;;4.05;3.62;;;;;;;2.45;78.68;100939.91;1797568;79;25672;-45
2024/01/26 10:04:24;;;;;;;5.62;4.17;;;;;;;2.47;78.49;100938.63;1797452;79;25621;-44
2024/01/26 10:06:50;;;;;;;5.50;4.20;;;;;;;2.46;78.21;100940.20;1797462;79;25465;-45
2024/01/26 10:09:17;;;;;;;4.30;3.90;;;;;;;2.44;78.48;100935.09;1797330;79;27921;-46
2024/01/26 10:11:45;;;;;;;4.85;4.30;;;;;;;2.46;78.72;100927.65;1797223;79;25590;-45
2024/01/26 10:14:23;;;;;;;5.08;4.17;;;;;;;2.49;78.54;100927.71;1796764;79;25608;-45
2024/01/26 10:17:00;;;;;;;3.92;3.52;;;;;;;2.49;78.53;100921.03;1797294;79;26200;-45
2024/01/26 10:19:28;;;;;;;6.33;4.45;;;;;;;2.52;78.46;100913.35;1797323;79;25591;-45
2024/01/26 10:21:56;;;;;;;5.33;4.58;;;;;;;2.54;78.51;100903.77;1797288;79;28140;-46
2024/01/26 10:24:24;;;;;;;6.62;5.12;;;;;;;2.55;78.30;100899.49;1797229;79;25453;-45
2024/01/26 10:26:53;;;;;;;5.83;4.73;;;;;;;2.58;78.28;100896.88;1791939;79;25586;-48
2024/01/26 10:29:22;;;;;;;6.83;4.75;;;;;;;2.63;78.33;100889.48;1791446;80;25782;-46
2024/01/26 10:31:51;;;;;;;15.18;10.68;;;;;;;2.67;78.56;100886.61;1791546;80;25409;-45
2024/01/26 10:34:18;;;;;;;6.10;5.03;;;;;;;2.73;78.58;100885.13;1791465;80;27365;-47
2024/01/26 10:36:48;;;;;;;4.55;4.03;;;;;;;2.77;78.17;100887.58;1791348;80;25570;-46
2024/01/26 10:39:28;;;;;;;6.45;4.28;;;;;;;2.82;78.04;100883.39;1791652;80;25437;-46
2024/01/26 10:41:53;;;;;;;5.97;4.55;;;;;;;2.86;78.05;100884.52;1790971;79;25722;-46
2024/01/26 10:44:22;;;;;;;5.35;4.83;;;;;;;2.89;77.79;100883.50;1791479;79;25606;-46
2024/01/26 10:46:51;;;;;;;7.65;5.75;;;;;;;2.91;77.84;100881.41;1791549;80;33574;-45
2024/01/26 10:49:20;;;;;;;9.70;6.35;;;;;;;2.92;77.34;100875.00;1791330;79;25600;-46
2024/01/26 10:51:48;;;;;;;7.40;5.78;;;;;;;2.90;77.07;100872.30;1791463;79;25456;-45
2024/01/26 10:54:15;;;;;;;6.58;5.85;;;;;;;2.91;76.99;100872.06;1791358;79;25617;-46
2024/01/26 10:56:41;;;;;;;6.25;5.58;;;;;;;2.89;76.56;100875.48;1791406;80;25593;-45
2024/01/26 10:59:10;;;;;;;8.40;5.65;;;;;;;2.86;76.64;100873.32;1791414;80;27364;-45
2024/01/26 11:01:38;;;;;;;6.75;5.60;;;;;;;2.85;76.13;100862.88;1791424;79;25448;-46
2024/01/26 11:04:08;;;;;;;6.03;5.42;;;;;;;2.82;76.09;100863.34;1771634;80;25485;-46
2024/01/26 11:06:34;;;;;;;7.83;5.50;;;;;;;2.82;76.55;100857.47;1791437;80;25637;-45
2024/01/26 11:09:08;;;;;;;8.78;5.33;;;;;;;2.85;76.84;100858.86;1791540;80;25372;-45
2024/01/26 11:11:39;;;;;;;6.80;5.00;;;;;;;2.91;77.17;100853.86;1791589;80;27239;-44
2024/01/26 11:14:09;;;;;;;11.93;9.18;;;;;;;2.95;77.16;100846.45;1791542;80;25624;-46
2024/01/26 11:16:41;;;;;;;92.72;57.55;;;;;;;3.00;76.73;100847.07;1791643;80;25441;-47
2024/01/26 11:19:07;;;;;;;11.38;7.80;;;;;;;3.05;76.56;100844.47;1791657;80;25613;-44
2024/01/26 11:21:44;;;;;;;8.80;5.92;;;;;;;3.16;77.16;100843.55;1791500;80;25398;-45
2024/01/26 11:24:19;;;;;;;7.40;5.40;;;;;;;3.28;77.29;100833.28;1791671;79;27258;-46
2024/01/26 11:27:03;;;;;;;7.12;4.85;;;;;;;3.44;77.12;100836.95;1796037;79;25554;-46
2024/01/26 11:29:39;;;;;;;6.92;4.95;;;;;;;3.62;76.98;100835.86;1797318;79;25469;-44
2024/01/26 11:32:16;;;;;;;6.12;4.55;;;;;;;3.71;76.21;100839.20;1797312;79;25621;-44
2024/01/26 11:34:44;;;;;;;5.92;5.33;;;;;;;3.73;74.86;100837.61;1794026;79;25586;-46